createdAt,value
2023-01-08T00:00:03.676Z,0.20
2023-01-08T00:02:39.296Z,0.20
2023-01-08T00:05:06.912Z,1.13
2023-01-08T00:07:33.948Z,1.25
2023-01-08T00:10:00.809Z,0.30
2023-01-08T00:12:27.824Z,1.35
2023-01-08T00:14:55.061Z,0.10
2023-01-08T00:17:22.305Z,0.45
2023-01-08T00:19:49.190Z,0.20
2023-01-08T00:22:16.061Z,0.17
2023-01-08T00:24:42.852Z,0.20
2023-01-08T00:27:09.743Z,0.75
2023-01-08T00:29:37.476Z,0.52
2023-01-08T00:32:04.812Z,0.30
2023-01-08T00:34:31.772Z,0.55
2023-01-08T00:36:58.732Z,0.35
2023-01-08T00:39:25.871Z,0.43
2023-01-08T00:41:52.936Z,0.20
2023-01-08T00:44:19.686Z,0.75
2023-01-08T00:46:46.495Z,0.30
2023-01-08T00:49:13.431Z,0.57
2023-01-08T00:51:40.238Z,0.70
2023-01-08T00:54:07.044Z,0.68
2023-01-08T00:56:33.890Z,0.45
2023-01-08T00:59:00.690Z,0.43
2023-01-08T01:01:27.612Z,0.20
2023-01-08T01:03:54.629Z,0.90
2023-01-08T01:06:21.508Z,0.22
2023-01-08T01:08:48.946Z,0.68
2023-01-08T01:11:20.397Z,0.30
2023-01-08T01:13:48.023Z,0.47
2023-01-08T01:16:15.075Z,0.30
2023-01-08T01:18:42.019Z,0.27
2023-01-08T01:21:31.030Z,0.73
2023-01-08T01:24:01.035Z,0.50
2023-01-08T01:26:28.238Z,0.22
2023-01-08T01:28:57.225Z,0.20
2023-01-08T01:31:25.403Z,0.65
2023-01-08T01:33:52.435Z,0.28
2023-01-08T01:36:23.601Z,0.20
2023-01-08T01:38:52.146Z,0.52
2023-01-08T01:41:31.213Z,0.88
2023-01-08T01:44:19.617Z,0.63
2023-01-08T01:46:47.884Z,0.68
2023-01-08T01:49:19.870Z,0.30
2023-01-08T01:51:52.540Z,0.20
2023-01-08T01:54:19.998Z,0.20
2023-01-08T01:56:47.155Z,0.30
2023-01-08T01:59:14.103Z,0.30
2023-01-08T02:01:42.891Z,0.77
2023-01-08T02:04:14.196Z,0.15
2023-01-08T02:07:09.659Z,0.65
2023-01-08T02:09:56.851Z,0.85
2023-01-08T02:12:32.691Z,0.30
2023-01-08T02:15:05.759Z,1.33
2023-01-08T02:17:46.570Z,0.43
2023-01-08T02:20:17.488Z,1.45
2023-01-08T02:23:01.432Z,1.92
2023-01-08T02:26:00.327Z,0.93
2023-01-08T02:28:29.063Z,0.60
2023-01-08T02:30:56.683Z,0.20
2023-01-08T02:33:27.158Z,1.15
2023-01-08T02:36:15.798Z,0.73
2023-01-08T02:38:53.838Z,0.88
2023-01-08T02:43:53.795Z,0.77
2023-01-08T02:46:26.924Z,0.40
2023-01-08T02:49:04.914Z,0.60
2023-01-08T02:54:09.293Z,0.93
2023-01-08T02:56:41.695Z,0.70
2023-01-08T02:59:13.004Z,0.80
2023-01-08T03:01:41.412Z,1.08
2023-01-08T03:04:17.830Z,0.25
2023-01-08T03:06:45.480Z,0.20
2023-01-08T03:09:13.850Z,0.40
2023-01-08T03:12:11.117Z,1.77
2023-01-08T03:14:52.823Z,0.40
2023-01-08T03:17:33.153Z,0.32
2023-01-08T03:20:07.750Z,0.30
2023-01-08T03:22:41.292Z,0.17
2023-01-08T03:25:10.093Z,0.20
2023-01-08T03:27:43.043Z,0.90
2023-01-08T03:30:11.699Z,0.30
2023-01-08T03:32:42.295Z,0.35
2023-01-08T03:35:12.155Z,0.30
2023-01-08T03:37:45.697Z,0.28
2023-01-08T03:40:45.125Z,0.20
2023-01-08T03:43:12.150Z,0.20
2023-01-08T03:45:44.778Z,0.10
2023-01-08T03:48:12.147Z,0.20
2023-01-08T03:50:40.472Z,0.40
2023-01-08T03:53:11.213Z,0.22
2023-01-08T03:55:38.431Z,0.28
2023-01-08T03:58:05.395Z,0.10
2023-01-08T04:00:32.206Z,0.80
2023-01-08T04:02:58.992Z,0.38
2023-01-08T04:05:25.864Z,0.22
2023-01-08T04:07:56.655Z,0.22
2023-01-08T04:10:24.888Z,0.55
2023-01-08T04:15:18.947Z,0.20
2023-01-08T04:17:45.868Z,0.68
2023-01-08T04:20:12.649Z,0.20
2023-01-08T04:22:39.523Z,0.50
2023-01-08T04:25:06.707Z,0.38
2023-01-08T04:27:33.595Z,0.40
2023-01-08T04:30:00.433Z,0.20
2023-01-08T04:32:27.325Z,0.20
2023-01-08T04:34:54.130Z,0.17
2023-01-08T04:37:20.907Z,0.50
2023-01-08T04:39:47.794Z,0.20
2023-01-08T04:42:14.617Z,0.20
2023-01-08T04:44:41.408Z,0.75
2023-01-08T04:47:08.427Z,0.35
2023-01-08T04:49:38.558Z,0.52
2023-01-08T04:52:05.445Z,0.10
2023-01-08T04:54:32.436Z,0.30
2023-01-08T04:56:59.195Z,0.20
2023-01-08T04:59:25.960Z,0.43
2023-01-08T05:01:53.008Z,0.20
2023-01-08T05:04:20.017Z,0.10
2023-01-08T05:06:46.968Z,0.20
2023-01-08T05:09:13.935Z,0.20
2023-01-08T05:11:43.908Z,0.10
2023-01-08T05:14:11.008Z,0.20
2023-01-08T05:16:37.993Z,0.90
2023-01-08T05:19:04.912Z,0.20
2023-01-08T05:21:34.989Z,0.20
2023-01-08T05:24:04.831Z,0.20
2023-01-08T05:26:35.231Z,0.30
2023-01-08T05:29:04.629Z,0.20
2023-01-08T05:31:31.650Z,0.20
2023-01-08T05:33:59.546Z,0.40
2023-01-08T05:36:26.357Z,0.20
2023-01-08T05:38:53.160Z,0.20
2023-01-08T05:41:19.929Z,0.20
2023-01-08T05:43:46.791Z,0.20
2023-01-08T05:46:13.828Z,0.52
2023-01-08T05:48:40.657Z,0.20
2023-01-08T05:51:07.672Z,0.20
2023-01-08T05:53:34.610Z,0.20
2023-01-08T05:56:03.243Z,0.30
2023-01-08T05:58:30.809Z,0.20
2023-01-08T06:01:12.748Z,0.20
2023-01-08T06:03:40.381Z,0.20
2023-01-08T06:06:08.151Z,0.15
2023-01-08T06:08:35.188Z,0.20
2023-01-08T06:11:04.458Z,0.20
2023-01-08T06:13:31.459Z,0.20
2023-01-08T06:16:00.600Z,0.15
2023-01-08T06:18:29.292Z,0.20
2023-01-08T06:20:56.770Z,0.20
2023-01-08T06:23:23.588Z,0.10
2023-01-08T06:25:58.862Z,0.20
2023-01-08T06:28:26.555Z,0.20
2023-01-08T06:30:53.476Z,0.30
2023-01-08T06:33:21.635Z,0.20
2023-01-08T06:35:48.992Z,0.30
2023-01-08T06:38:19.011Z,0.20
2023-01-08T06:40:49.337Z,0.20
2023-01-08T06:43:16.306Z,0.20
2023-01-08T06:45:43.217Z,0.17
2023-01-08T06:48:10.083Z,0.20
2023-01-08T06:50:36.916Z,0.55
2023-01-08T06:53:03.715Z,0.20
2023-01-08T06:55:30.607Z,0.77
2023-01-08T06:57:58.554Z,0.20
2023-01-08T07:00:26.420Z,0.20
2023-01-08T07:02:54.320Z,0.40
2023-01-08T07:05:21.456Z,0.57
2023-01-08T07:07:48.418Z,0.60
2023-01-08T07:10:15.505Z,0.38
2023-01-08T07:12:42.407Z,0.50
2023-01-08T07:15:09.731Z,0.20
2023-01-08T07:17:37.845Z,0.73
2023-01-08T07:22:31.762Z,0.20
2023-01-08T07:24:58.552Z,0.30
2023-01-08T07:27:25.444Z,2.58
2023-01-08T07:29:52.298Z,1.15
2023-01-08T07:32:19.092Z,0.30
2023-01-08T07:34:45.882Z,0.30
2023-01-08T07:37:12.883Z,0.45
2023-01-08T07:39:39.685Z,0.20
2023-01-08T07:42:06.588Z,1.05
2023-01-08T07:44:33.795Z,1.02
2023-01-08T07:47:00.586Z,0.77
2023-01-08T07:49:27.479Z,0.50
2023-01-08T07:51:54.231Z,0.35
2023-01-08T07:54:20.996Z,1.05
2023-01-08T07:56:47.839Z,0.93
2023-01-08T07:59:14.674Z,0.85
2023-01-08T08:01:41.551Z,0.60
2023-01-08T08:04:08.370Z,0.63
2023-01-08T08:06:35.342Z,0.35
2023-01-08T08:09:03.705Z,0.82
2023-01-08T08:11:30.769Z,0.73
2023-01-08T08:13:57.602Z,0.85
2023-01-08T08:16:24.594Z,0.70
2023-01-08T08:18:51.479Z,0.70
2023-01-08T08:21:18.328Z,0.60
2023-01-08T08:23:45.113Z,0.70
2023-01-08T08:26:12.070Z,0.52
2023-01-08T08:28:38.875Z,0.95
2023-01-08T08:31:05.907Z,1.00
2023-01-08T08:33:32.853Z,0.70
2023-01-08T08:35:59.638Z,0.63
2023-01-08T08:38:26.599Z,0.70
2023-01-08T08:40:53.647Z,0.30
2023-01-08T08:43:20.632Z,6.38
2023-01-08T08:45:47.450Z,6.28
2023-01-08T08:48:16.777Z,0.85
2023-01-08T08:50:43.746Z,0.20
2023-01-08T08:53:10.894Z,0.63
2023-01-08T08:55:37.732Z,0.40
2023-01-08T08:58:12.989Z,0.30
2023-01-08T09:00:41.505Z,0.35
2023-01-08T09:03:14.257Z,0.75
2023-01-08T09:06:16.013Z,0.50
2023-01-08T09:08:42.860Z,0.45
2023-01-08T09:11:09.796Z,0.68
2023-01-08T09:13:37.422Z,0.45
2023-01-08T09:16:05.398Z,0.32
2023-01-08T09:18:32.255Z,0.82
2023-01-08T09:20:59.127Z,1.20
2023-01-08T09:23:26.130Z,0.20
2023-01-08T09:26:00.272Z,0.43
2023-01-08T09:28:27.248Z,0.20
2023-01-08T09:30:54.228Z,0.63
2023-01-08T09:33:22.038Z,0.20
2023-01-08T09:35:48.801Z,0.20
2023-01-08T09:38:15.575Z,0.52
2023-01-08T09:40:56.967Z,0.20
2023-01-08T09:43:26.251Z,0.52
2023-01-08T09:45:57.715Z,0.35
2023-01-08T09:48:31.040Z,0.30
2023-01-08T09:50:58.354Z,1.23
2023-01-08T09:53:26.103Z,0.63
2023-01-08T09:56:09.793Z,0.22
2023-01-08T09:58:40.522Z,0.30
2023-01-08T10:01:11.699Z,0.20
2023-01-08T10:03:59.638Z,0.68
2023-01-08T10:06:26.681Z,0.82
2023-01-08T10:08:53.640Z,0.20
2023-01-08T10:11:21.589Z,0.32
2023-01-08T10:16:26.312Z,0.47
2023-01-08T10:18:53.264Z,0.57
2023-01-08T10:21:20.517Z,0.77
2023-01-08T10:23:52.717Z,1.02
2023-01-08T10:26:28.955Z,0.35
2023-01-08T10:29:16.990Z,0.25
2023-01-08T10:31:57.271Z,0.30
2023-01-08T10:34:45.060Z,0.13
2023-01-08T10:39:56.231Z,0.20
2023-01-08T10:42:24.206Z,0.75
2023-01-08T10:44:58.749Z,0.30
2023-01-08T10:47:27.745Z,0.20
2023-01-08T10:49:55.371Z,0.40
2023-01-08T10:52:26.774Z,0.22
2023-01-08T10:54:54.078Z,0.30
2023-01-08T10:57:29.886Z,0.20
2023-01-08T10:59:57.331Z,0.25
2023-01-08T11:02:40.382Z,0.20
2023-01-08T11:05:10.327Z,0.20
2023-01-08T11:07:37.794Z,0.20
2023-01-08T11:10:05.571Z,0.22
2023-01-08T11:12:41.040Z,0.30
2023-01-08T11:15:24.121Z,0.20
2023-01-08T11:17:51.072Z,0.30
2023-01-08T11:20:22.916Z,0.40
2023-01-08T11:22:50.732Z,0.20
2023-01-08T11:25:28.817Z,0.20
2023-01-08T11:27:57.136Z,0.20
2023-01-08T11:30:27.866Z,1.85
2023-01-08T11:33:17.020Z,0.70
2023-01-08T11:35:54.326Z,0.55
2023-01-08T11:38:21.271Z,0.20
2023-01-08T11:41:19.888Z,0.30
2023-01-08T11:44:32.977Z,0.20
2023-01-08T11:47:38.120Z,0.30
2023-01-08T11:50:18.441Z,1.00
2023-01-08T11:53:10.286Z,1.13
2023-01-08T11:55:49.227Z,0.40
2023-01-08T11:58:23.047Z,0.50
2023-01-08T12:00:49.861Z,1.17
2023-01-08T12:03:26.762Z,0.20
2023-01-08T12:06:05.087Z,0.80
2023-01-08T12:08:58.263Z,0.50
2023-01-08T12:11:37.191Z,0.85
2023-01-08T12:14:18.216Z,0.40
2023-01-08T12:17:03.871Z,0.30
2023-01-08T12:19:52.270Z,1.05
2023-01-08T12:22:34.269Z,0.30
2023-01-08T12:25:23.216Z,0.43
2023-01-08T12:28:09.067Z,0.60
2023-01-08T12:31:06.995Z,0.45
2023-01-08T12:33:47.910Z,0.73
2023-01-08T12:36:22.202Z,0.30
2023-01-08T12:39:17.758Z,0.30
2023-01-08T12:41:46.947Z,0.68
2023-01-08T12:44:23.817Z,0.50
2023-01-08T12:46:53.156Z,0.77
2023-01-08T12:49:54.047Z,1.92
2023-01-08T12:52:38.483Z,1.90
2023-01-08T12:55:30.561Z,1.70
2023-01-08T12:58:12.457Z,1.23
2023-01-08T13:00:54.190Z,0.85
2023-01-08T13:03:27.456Z,1.30
2023-01-08T13:06:07.373Z,1.75
2023-01-08T13:08:37.604Z,0.77
2023-01-08T13:11:06.276Z,0.50
2023-01-08T13:13:45.212Z,0.43
2023-01-08T13:16:12.077Z,0.50
2023-01-08T13:18:39.331Z,0.50
2023-01-08T13:21:09.916Z,0.67
2023-01-08T13:23:38.228Z,1.45
2023-01-08T13:26:06.896Z,1.67
2023-01-08T13:28:46.232Z,1.05
2023-01-08T13:31:22.342Z,1.70
2023-01-08T13:33:52.445Z,1.27
2023-01-08T13:36:22.760Z,1.40
2023-01-08T13:39:12.656Z,1.83
2023-01-08T13:42:10.925Z,0.20
2023-01-08T13:44:47.311Z,0.45
2023-01-08T13:47:33.770Z,0.85
2023-01-08T13:50:05.935Z,0.85
2023-01-08T13:52:43.926Z,1.67
2023-01-08T13:57:52.089Z,0.55
2023-01-08T14:00:29.625Z,0.38
2023-01-08T14:02:56.584Z,0.40
2023-01-08T14:05:34.640Z,0.82
2023-01-08T14:10:29.706Z,1.77
2023-01-08T14:13:06.066Z,0.90
2023-01-08T14:15:34.958Z,1.08
2023-01-08T14:18:02.983Z,0.80
2023-01-08T14:23:16.129Z,0.43
2023-01-08T14:25:43.232Z,1.00
2023-01-08T14:28:17.796Z,1.13
2023-01-08T14:30:52.679Z,0.75
2023-01-08T14:33:24.277Z,0.38
2023-01-08T14:35:51.779Z,1.63
2023-01-08T14:38:18.810Z,1.40
2023-01-08T14:40:51.218Z,0.60
2023-01-08T14:43:20.618Z,1.17
2023-01-08T14:45:50.627Z,2.38
2023-01-08T14:48:44.025Z,0.93
2023-01-08T14:51:16.759Z,0.80
2023-01-08T14:53:47.667Z,1.70
2023-01-08T14:56:19.771Z,3.33
2023-01-08T14:58:47.196Z,1.52
2023-01-08T15:01:20.331Z,1.25
2023-01-08T15:03:49.533Z,2.05
2023-01-08T15:06:30.766Z,1.52
2023-01-08T15:09:00.043Z,1.75
2023-01-08T15:11:49.126Z,1.42
2023-01-08T15:14:22.939Z,1.02
2023-01-08T15:16:52.731Z,1.13
2023-01-08T15:19:25.732Z,0.60
2023-01-08T15:22:01.143Z,1.17
2023-01-08T15:24:34.058Z,0.80
2023-01-08T15:27:10.187Z,1.42
2023-01-08T15:29:48.284Z,1.15
2023-01-08T15:32:15.104Z,1.30
2023-01-08T15:34:46.319Z,0.90
2023-01-08T15:37:14.993Z,0.73
2023-01-08T15:39:42.698Z,2.45
2023-01-08T15:42:36.892Z,2.50
2023-01-08T15:45:05.324Z,4.07
2023-01-08T15:47:32.199Z,2.17
2023-01-08T15:49:59.887Z,5.72
2023-01-08T15:52:29.735Z,7.50
2023-01-08T15:54:58.079Z,9.23
2023-01-08T15:57:25.298Z,1.75
2023-01-08T15:59:52.149Z,3.53
2023-01-08T16:02:19.260Z,4.20
2023-01-08T16:04:54.714Z,1.33
2023-01-08T16:07:22.341Z,2.92
2023-01-08T16:09:49.269Z,3.97
2023-01-08T16:12:16.108Z,3.45
2023-01-08T16:14:42.885Z,2.35
2023-01-08T16:17:10.213Z,1.90
2023-01-08T16:19:37.021Z,1.52
2023-01-08T16:22:04.680Z,2.38
2023-01-08T16:24:32.037Z,2.05
2023-01-08T16:26:58.927Z,1.87
2023-01-08T16:29:27.689Z,2.67
2023-01-08T16:31:55.267Z,2.78
2023-01-08T16:34:22.177Z,2.92
2023-01-08T16:36:49.332Z,3.13
2023-01-08T16:39:16.271Z,3.37
2023-01-08T16:41:43.508Z,3.03
2023-01-08T16:44:28.778Z,2.07
2023-01-08T16:46:56.138Z,2.83
2023-01-08T16:49:23.083Z,1.83
2023-01-08T16:51:49.945Z,2.75
2023-01-08T16:54:17.214Z,2.90
2023-01-08T16:56:44.568Z,3.15
2023-01-08T16:59:22.760Z,1.20
2023-01-08T17:01:51.146Z,2.78
2023-01-08T17:04:18.962Z,4.15
2023-01-08T17:06:46.934Z,3.42
2023-01-08T17:09:14.717Z,1.33
2023-01-08T17:11:43.287Z,1.63
2023-01-08T17:14:10.383Z,1.70
2023-01-08T17:16:37.565Z,1.60
2023-01-08T17:19:04.850Z,1.77
2023-01-08T17:21:33.641Z,0.40
2023-01-08T17:24:00.497Z,0.90
2023-01-08T17:26:27.663Z,1.08
2023-01-08T17:28:54.717Z,0.65
2023-01-08T17:31:22.591Z,0.20
2023-01-08T17:33:50.675Z,0.35
2023-01-08T17:36:20.065Z,0.40
2023-01-08T17:38:47.472Z,0.60
2023-01-08T17:41:34.313Z,0.35
2023-01-08T17:44:01.352Z,1.70
2023-01-08T17:46:28.434Z,1.98
2023-01-08T17:48:55.251Z,0.73
2023-01-08T17:51:22.096Z,0.73
2023-01-08T17:53:48.942Z,0.38
2023-01-08T17:56:15.702Z,1.23
2023-01-08T17:58:42.593Z,1.02
2023-01-08T18:01:12.945Z,2.08
2023-01-08T18:03:39.773Z,2.22
2023-01-08T18:06:12.099Z,1.27
2023-01-08T18:08:40.489Z,1.10
2023-01-08T18:11:08.877Z,1.67
2023-01-08T18:13:36.463Z,1.15
2023-01-08T18:16:09.075Z,2.22
2023-01-08T18:18:36.766Z,1.40
2023-01-08T18:21:04.161Z,2.92
2023-01-08T18:23:31.181Z,0.82
2023-01-08T18:26:04.363Z,2.15
2023-01-08T18:28:31.280Z,1.67
2023-01-08T18:30:58.074Z,2.20
2023-01-08T18:33:24.937Z,0.82
2023-01-08T18:35:51.746Z,1.00
2023-01-08T18:38:18.588Z,1.52
2023-01-08T18:40:46.299Z,1.20
2023-01-08T18:43:13.132Z,3.38
2023-01-08T18:45:39.951Z,1.02
2023-01-08T18:48:09.236Z,1.95
2023-01-08T18:50:40.336Z,1.77
2023-01-08T18:53:10.543Z,1.00
2023-01-08T18:55:37.524Z,1.42
2023-01-08T18:58:04.731Z,0.85
2023-01-08T19:00:32.204Z,1.77
2023-01-08T19:02:59.136Z,4.70
2023-01-08T19:05:26.043Z,3.65
2023-01-08T19:07:52.937Z,1.73
2023-01-08T19:10:21.661Z,1.73
2023-01-08T19:12:48.997Z,2.55
2023-01-08T19:15:15.987Z,2.65
2023-01-08T19:17:42.844Z,2.50
2023-01-08T19:20:10.474Z,4.13
2023-01-08T19:22:37.347Z,3.90
2023-01-08T19:25:04.524Z,3.67
2023-01-08T19:27:33.363Z,6.23
2023-01-08T19:30:00.243Z,3.70
2023-01-08T19:32:27.293Z,2.53
2023-01-08T19:34:54.119Z,3.30
2023-01-08T19:37:20.995Z,4.65
2023-01-08T19:39:47.894Z,3.60
2023-01-08T19:42:33.109Z,2.10
2023-01-08T19:44:59.911Z,2.88
2023-01-08T19:47:26.812Z,5.05
2023-01-08T19:49:54.001Z,1.13
2023-01-08T19:52:21.130Z,2.33
2023-01-08T19:54:48.077Z,1.75
2023-01-08T19:57:14.911Z,1.10
2023-01-08T19:59:41.823Z,2.88
2023-01-08T20:02:10.430Z,4.32
2023-01-08T20:04:40.843Z,3.13
2023-01-08T20:07:07.680Z,0.68
2023-01-08T20:09:34.948Z,4.70
2023-01-08T20:12:02.770Z,1.42
2023-01-08T20:14:29.919Z,1.10
2023-01-08T20:16:57.084Z,1.33
2023-01-08T20:19:24.605Z,1.08
2023-01-08T20:21:51.572Z,0.65
2023-01-08T20:24:18.348Z,0.55
2023-01-08T20:26:46.166Z,1.35
2023-01-08T20:29:15.158Z,1.27
2023-01-08T20:31:43.912Z,1.23
2023-01-08T20:34:16.084Z,1.58
2023-01-08T20:36:44.590Z,1.25
2023-01-08T20:39:14.248Z,0.68
2023-01-08T20:41:46.540Z,0.55
2023-01-08T20:44:28.417Z,0.77
2023-01-08T20:46:55.366Z,1.30
2023-01-08T20:49:25.149Z,1.70
2023-01-08T20:51:58.600Z,0.77
2023-01-08T20:54:27.556Z,0.47
2023-01-08T20:56:59.189Z,1.10
2023-01-08T20:59:27.154Z,1.70
2023-01-08T21:04:21.706Z,1.38
2023-01-08T21:06:48.962Z,0.30
2023-01-08T21:09:17.711Z,0.40
2023-01-08T21:11:44.572Z,0.57
2023-01-08T21:14:11.469Z,1.15
2023-01-08T21:16:40.553Z,0.93
2023-01-08T21:19:10.261Z,2.33
2023-01-08T21:21:40.678Z,0.82
2023-01-08T21:24:10.353Z,0.73
2023-01-08T21:26:37.923Z,1.73
2023-01-08T21:29:09.045Z,0.95
2023-01-08T21:31:37.004Z,1.85
2023-01-08T21:34:05.384Z,1.38
2023-01-08T21:36:32.902Z,2.33
2023-01-08T21:39:01.334Z,0.80
2023-01-08T21:41:48.198Z,1.27
2023-01-08T21:44:39.639Z,0.63
2023-01-08T21:47:10.745Z,0.60
2023-01-08T21:49:37.783Z,0.47
2023-01-08T21:52:23.883Z,1.40
2023-01-08T21:54:51.744Z,0.70
2023-01-08T21:57:18.653Z,0.30
2023-01-08T21:59:45.715Z,1.42
2023-01-08T22:02:17.311Z,1.03
2023-01-08T22:04:45.137Z,1.17
2023-01-08T22:07:12.185Z,0.55
2023-01-08T22:09:39.070Z,1.00
2023-01-08T22:12:06.929Z,0.98
2023-01-08T22:14:34.088Z,0.60
2023-01-08T22:17:00.976Z,1.37
2023-01-08T22:19:27.793Z,0.98
2023-01-08T22:21:55.136Z,0.70
2023-01-08T22:24:21.968Z,0.65
2023-01-08T22:26:50.292Z,1.35
2023-01-08T22:29:17.626Z,1.85
2023-01-08T22:31:44.479Z,1.55
2023-01-08T22:34:17.116Z,0.60
2023-01-08T22:36:45.316Z,0.32
2023-01-08T22:41:39.155Z,0.70
2023-01-08T22:44:06.083Z,1.30
2023-01-08T22:46:33.199Z,0.47
2023-01-08T22:49:00.304Z,0.40
2023-01-08T22:51:27.720Z,0.60
2023-01-08T22:53:56.161Z,1.27
2023-01-08T22:56:23.333Z,0.80
2023-01-08T22:58:50.872Z,0.65
2023-01-08T23:01:19.210Z,0.75
2023-01-08T23:03:54.953Z,1.27
2023-01-08T23:06:23.212Z,0.20
2023-01-08T23:11:19.330Z,1.25
2023-01-08T23:13:46.766Z,0.95
2023-01-08T23:16:15.698Z,0.45
2023-01-08T23:18:43.380Z,0.20
2023-01-08T23:21:14.804Z,0.20
2023-01-08T23:23:41.776Z,0.20
2023-01-08T23:26:11.277Z,0.20
2023-01-08T23:28:38.737Z,0.20
2023-01-08T23:31:10.791Z,0.20
2023-01-08T23:33:37.727Z,0.63
2023-01-08T23:36:05.099Z,0.25
2023-01-08T23:38:35.165Z,0.20
2023-01-08T23:41:06.536Z,0.20
2023-01-08T23:43:33.526Z,0.20
2023-01-08T23:46:04.828Z,0.45
2023-01-08T23:48:32.195Z,0.20
2023-01-08T23:50:59.586Z,0.20
2023-01-08T23:53:26.767Z,0.20
2023-01-08T23:55:53.683Z,0.20
2023-01-08T23:58:21.045Z,0.20
